CheckWX is a tool to help pilots better visualize weather data.  It is not intended as a substitute for an official pre-flight weather briefing.

03:19:42 UTC

KCNI METAR
Cherokee County Airport
Canton, Georgia, USA
Current

25 mins ago

KCNI 230255Z AUTO 22004KT 10SM SCT047 27/20 A2998 RMK AO2
Observed
Jul-23 @ 02:55 UTC
Wind
  • 220° at 4 KTS
Visibility
10 SM
Flight Rules
VFR
Cloud Levels
  • Scattered at 4,700' AGL
Temperature
27°C / 81°F
Dewpoint
20°C / 68°F
Heat Index
29°C / 84°F
Humidity
66%
Altimeter
29.98" Hg
Pressure
1015.22 hPa
Previous

45 mins ago

KCNI 230235Z AUTO 22004KT 10SM BKN047 27/20 A2998 RMK AO2
Observed
Jul-23 @ 02:35 UTC
Wind
  • 220° at 4 KTS
Visibility
10 SM
Flight Rules
VFR
Cloud Levels
  • Broken at 4,700' AGL
Temperature
27°C / 81°F
Dewpoint
20°C / 68°F
Heat Index
29°C / 84°F
Humidity
66%
Altimeter
29.98" Hg
Pressure
1015.22 hPa
Previous

1 hour ago

KCNI 230215Z AUTO 00000KT 10SM BKN047 26/21 A2998 RMK AO2
Observed
Jul-23 @ 02:15 UTC
Visibility
10 SM
Flight Rules
VFR
Cloud Levels
  • Broken at 4,700' AGL
Temperature
26°C / 79°F
Dewpoint
21°C / 70°F
Humidity
74%
Altimeter
29.98" Hg
Pressure
1015.22 hPa